Time;durP1;ratioP1;P1;durP2;ratioP2;P2;SDS_P1;SDS_P2;PMS_P1;PMS_P2;Temp;Humidity;BMP_temperature;BMP_pressure;BME280_temperature;BME280_humidity;BME280_pressure;Samples;Min_cycle;Max_cycle;Signal;HPM_P1;HPM_P2
2022/06/18 00:01:33;;;;;;;3.80;1.80;;;;;;;18.57;53.79;98761.94;5371747;26;20073;-81
2022/06/18 00:04:06;;;;;;;4.28;1.80;;;;;;;18.53;53.58;98760.47;5391442;26;20051;-81
2022/06/18 00:06:54;;;;;;;5.32;1.65;;;;;;;17.96;55.76;98765.78;5391252;26;20370;-80
2022/06/18 00:09:25;;;;;;;3.35;1.60;;;;;;;18.25;54.59;98756.16;5391467;26;20455;-80
2022/06/18 00:14:39;;;;;;;3.97;1.70;;;;;;;18.56;54.13;98768.94;5373981;26;20048;-81
2022/06/18 00:17:15;;;;;;;3.55;1.70;;;;;;;18.52;54.17;98767.50;5391611;26;20056;-81
2022/06/18 00:19:46;;;;;;;4.40;1.62;;;;;;;18.31;54.03;98754.00;5371159;26;20469;-81
2022/06/18 00:22:14;;;;;;;5.57;1.73;;;;;;;18.00;55.56;98760.31;5391536;26;20059;-81
2022/06/18 00:24:42;;;;;;;3.05;1.70;;;;;;;18.82;53.35;98769.06;5391472;26;20100;-80
2022/06/18 00:27:14;;;;;;;3.80;1.70;;;;;;;18.80;52.88;98769.19;5390862;26;20043;-81
2022/06/18 00:29:43;;;;;;;3.83;1.73;;;;;;;18.76;53.45;98767.72;5391160;26;20070;-80
2022/06/18 00:32:10;;;;;;;5.60;2.58;;;;;;;18.53;54.14;98757.88;5391099;26;20525;-82
2022/06/18 00:34:37;;;;;;;3.03;1.70;;;;;;;19.42;51.18;98763.34;5390999;26;20057;-82
2022/06/18 00:37:05;;;;;;;2.90;1.50;;;;;;;18.18;54.27;98760.91;5391385;26;20513;-80
2022/06/18 00:39:32;;;;;;;4.20;1.80;;;;;;;18.63;53.30;98759.78;5390733;26;20095;-80
2022/06/18 00:42:05;;;;;;;3.17;1.70;;;;;;;18.38;53.88;98767.50;5391280;26;20130;-80
2022/06/18 00:44:38;;;;;;;4.97;1.70;;;;;;;18.85;52.46;98769.75;5371398;26;20126;-80
2022/06/18 00:47:15;;;;;;;3.80;1.87;;;;;;;18.91;52.63;98773.72;5390891;26;20075;-81
2022/06/18 00:49:48;;;;;;;3.65;1.70;;;;;;;18.86;52.47;98752.28;5371341;26;20059;-80
2022/06/18 00:52:23;;;;;;;4.43;1.85;;;;;;;19.05;51.80;98757.97;5371144;26;20123;-82
2022/06/18 00:54:58;;;;;;;3.37;1.70;;;;;;;18.73;52.69;98766.16;5370649;26;20065;-81
2022/06/18 00:57:43;;;;;;;2.47;1.50;;;;;;;19.31;51.01;98748.38;5391308;26;20127;-81
2022/06/18 01:00:19;;;;;;;4.25;1.83;;;;;;;18.69;52.97;98762.03;5391157;26;20104;-81
2022/06/18 01:02:48;;;;;;;2.78;1.58;;;;;;;18.55;53.66;98756.00;5390800;26;20067;-80
2022/06/18 01:05:17;;;;;;;4.43;1.90;;;;;;;19.04;52.30;98749.28;5391172;26;20118;-81
2022/06/18 01:07:48;;;;;;;4.82;1.73;;;;;;;18.12;55.23;98751.69;5390662;26;20464;-81
2022/06/18 01:10:27;;;;;;;4.25;2.00;;;;;;;18.68;53.53;98756.91;5391110;26;20060;-80
2022/06/18 01:12:55;;;;;;;4.90;1.75;;;;;;;18.80;53.13;98763.94;5392529;26;20403;-80
2022/06/18 01:15:22;;;;;;;6.97;2.10;;;;;;;19.17;51.74;98761.56;5413535;26;20437;-82
2022/06/18 01:17:53;;;;;;;3.85;1.75;;;;;;;19.43;51.17;98751.94;5413770;26;20047;-80
2022/06/18 01:20:22;;;;;;;3.42;1.90;;;;;;;18.23;54.24;98753.66;5413782;26;20075;-80
2022/06/18 01:23:03;;;;;;;2.92;1.62;;;;;;;18.43;54.19;98755.84;5386000;26;20116;-81
2022/06/18 01:25:30;;;;;;;4.90;2.00;;;;;;;18.29;54.09;98755.00;5371271;26;20126;-82
2022/06/18 01:27:58;;;;;;;5.30;1.95;;;;;;;18.45;54.23;98758.34;5391868;26;20112;-80
2022/06/18 01:30:32;;;;;;;4.18;1.80;;;;;;;19.04;52.05;98745.84;5371518;26;20075;-81
2022/06/18 01:33:00;;;;;;;5.12;1.95;;;;;;;19.11;51.91;98751.47;5392064;26;20107;-80
2022/06/18 01:35:28;;;;;;;4.72;1.98;;;;;;;19.00;52.10;98754.81;5392155;26;20103;-81
2022/06/18 01:37:56;;;;;;;4.43;1.80;;;;;;;18.97;51.91;98744.56;5391598;26;20107;-80
2022/06/18 01:40:29;;;;;;;4.35;1.60;;;;;;;19.02;51.65;98737.22;5391954;26;20372;-80
2022/06/18 01:42:57;;;;;;;6.10;2.15;;;;;;;18.61;52.81;98743.37;5371543;26;20110;-81
2022/06/18 01:45:27;;;;;;;4.03;1.90;;;;;;;19.00;52.45;98739.94;5391864;26;20126;-80
2022/06/18 01:48:06;;;;;;;4.12;1.98;;;;;;;18.73;53.45;98744.41;5371820;26;20462;-80
2022/06/18 01:50:56;;;;;;;8.65;1.95;;;;;;;18.82;53.21;98745.53;5371318;26;20071;-81
2022/06/18 01:53:47;;;;;;;3.95;1.80;;;;;;;18.61;53.09;98747.75;5371806;26;20124;-81
2022/06/18 01:56:18;;;;;;;3.72;2.08;;;;;;;18.62;53.03;98732.00;5378577;26;20057;-81
2022/06/18 01:59:04;;;;;;;4.32;1.90;;;;;;;18.58;53.44;98740.09;5371408;26;20122;-82
2022/06/18 02:01:34;;;;;;;4.50;1.92;;;;;;;18.70;53.56;98739.34;5371829;26;20173;-80
2022/06/18 02:04:02;;;;;;;4.68;2.05;;;;;;;19.30;51.38;98744.94;5371486;26;20130;-81
2022/06/18 02:06:32;;;;;;;4.82;2.30;;;;;;;19.17;51.89;98743.25;5353369;26;20448;-82
2022/06/18 02:09:01;;;;;;;5.43;2.08;;;;;;;19.58;50.66;98745.72;5371533;26;20063;-82
2022/06/18 02:11:28;;;;;;;4.32;2.00;;;;;;;21.49;45.69;98752.91;5371449;26;20067;-82
2022/06/18 02:14:00;;;;;;;4.80;2.08;;;;;;;22.07;43.82;98762.38;5391455;26;20111;-81
2022/06/18 02:16:30;;;;;;;3.55;1.87;;;;;;;22.09;43.96;98764.88;5371968;26;20044;-82
2022/06/18 02:18:59;;;;;;;5.50;2.10;;;;;;;21.98;44.48;98763.06;5391317;26;20126;-82
2022/06/18 02:21:26;;;;;;;5.70;2.30;;;;;;;22.36;43.04;98762.72;5372048;26;20434;-82
2022/06/18 02:23:53;;;;;;;4.82;2.03;;;;;;;22.11;43.68;98768.22;5391713;26;20055;-82
2022/06/18 02:26:22;;;;;;;5.90;2.00;;;;;;;21.82;44.16;98760.81;5371331;26;20138;-81
2022/06/18 02:28:50;;;;;;;5.12;2.10;;;;;;;21.20;45.70;98760.31;5371483;26;20119;-82
2022/06/18 02:31:19;;;;;;;4.32;1.80;;;;;;;21.42;45.56;98759.56;5371732;26;20544;-82
2022/06/18 02:33:52;;;;;;;4.65;2.10;;;;;;;22.05;43.72;98758.19;5370247;26;20123;-82
2022/06/18 02:36:24;;;;;;;6.28;2.10;;;;;;;22.03;43.24;98754.84;5391693;26;20091;-80
2022/06/18 02:38:56;;;;;;;7.43;2.30;;;;;;;21.52;44.55;98747.41;5391181;26;20409;-82
2022/06/18 02:41:24;;;;;;;4.45;2.12;;;;;;;21.66;44.27;98752.44;5391694;26;20587;-82
2022/06/18 02:43:51;;;;;;;4.85;2.08;;;;;;;21.86;44.15;98764.03;5391684;26;20119;-82
2022/06/18 02:46:19;;;;;;;4.90;2.15;;;;;;;21.56;44.57;98756.72;5371376;26;20051;-82
2022/06/18 02:48:46;;;;;;;3.78;2.00;;;;;;;21.62;44.91;98762.34;5371650;26;20058;-82
2022/06/18 02:51:14;;;;;;;3.65;1.83;;;;;;;21.78;44.58;98764.63;5391672;26;20060;-82
2022/06/18 02:53:41;;;;;;;5.68;2.08;;;;;;;21.33;45.51;98763.72;5391174;26;20116;-82
2022/06/18 02:56:12;;;;;;;4.03;1.90;;;;;;;21.41;45.47;98763.97;5391683;26;20054;-81
2022/06/18 02:58:42;;;;;;;4.05;1.80;;;;;;;22.09;44.15;98767.53;5371589;26;20123;-81
2022/06/18 03:01:15;;;;;;;4.18;1.85;;;;;;;22.32;43.61;98769.16;5391151;26;20059;-82
2022/06/18 03:03:47;;;;;;;3.47;1.80;;;;;;;21.76;44.70;98777.03;5391748;26;20131;-82
2022/06/18 03:06:16;;;;;;;5.57;2.00;;;;;;;21.21;46.16;98772.47;5391901;26;20043;-82
2022/06/18 03:08:46;;;;;;;6.53;2.05;;;;;;;21.34;45.93;98775.88;5391102;26;20043;-81
2022/06/18 03:13:59;;;;;;;6.90;2.20;;;;;;;20.92;47.10;98777.25;5390945;26;20426;-82
2022/06/18 03:16:28;;;;;;;5.95;2.10;;;;;;;21.64;45.31;98776.19;5391595;26;20096;-81
2022/06/18 03:18:57;;;;;;;3.12;1.85;;;;;;;21.61;45.97;98775.59;5391433;26;20546;-81
2022/06/18 03:21:25;;;;;;;4.82;2.05;;;;;;;22.12;44.66;98785.69;5371242;26;20083;-81
2022/06/18 03:23:53;;;;;;;5.00;1.90;;;;;;;22.36;44.06;98780.28;5371442;26;20228;-81
2022/06/18 03:26:20;;;;;;;7.80;2.85;;;;;;;22.14;44.57;98776.72;5391528;26;20062;-81
2022/06/18 03:28:48;;;;;;;4.75;1.92;;;;;;;22.98;42.34;98775.25;5370840;26;20062;-81
2022/06/18 03:31:15;;;;;;;4.57;2.20;;;;;;;22.92;42.17;98773.09;5391488;26;20387;-81
2022/06/18 03:33:42;;;;;;;5.60;1.90;;;;;;;22.45;43.17;98775.13;5391497;26;20064;-82
2022/06/18 03:36:11;;;;;;;4.03;2.05;;;;;;;22.95;42.04;98775.47;5391094;26;20065;-82
2022/06/18 03:38:39;;;;;;;3.78;2.00;;;;;;;23.19;41.20;98764.75;5391318;26;20111;-81
2022/06/18 03:41:08;;;;;;;3.78;1.80;;;;;;;22.33;43.10;98775.25;5371452;26;20111;-81
2022/06/18 03:43:35;;;;;;;3.30;1.90;;;;;;;22.40;43.61;98776.44;5391034;26;20075;-81
2022/06/18 03:46:08;;;;;;;4.68;2.00;;;;;;;23.04;42.65;98771.25;5391646;26;20058;-81
2022/06/18 03:48:45;;;;;;;3.67;1.70;;;;;;;23.82;40.95;98769.97;5391101;26;20071;-81
2022/06/18 03:51:14;;;;;;;3.87;1.80;;;;;;;24.56;38.61;98772.34;5370973;26;20126;-81
2022/06/18 03:53:41;;;;;;;4.43;2.10;;;;;;;24.95;37.94;98781.97;5391256;26;20111;-81
2022/06/18 03:56:13;;;;;;;3.72;2.00;;;;;;;25.30;37.31;98785.88;5391255;26;20099;-82
2022/06/18 03:58:40;;;;;;;6.18;2.10;;;;;;;25.99;35.98;98780.34;5391353;26;20099;-81
2022/06/18 04:01:08;;;;;;;2.55;1.62;;;;;;;26.62;34.62;98779.63;5391541;26;20447;-81
2022/06/18 04:03:35;;;;;;;3.12;1.80;;;;;;;27.27;33.80;98778.44;5391066;26;20135;-81
2022/06/18 04:06:02;;;;;;;5.20;2.22;;;;;;;27.77;32.96;98779.66;5391454;26;20063;-82
2022/06/18 04:08:29;;;;;;;3.97;1.92;;;;;;;28.23;32.76;98781.87;5391318;26;20067;-81
2022/06/18 04:10:57;;;;;;;3.05;1.67;;;;;;;28.99;31.25;98785.44;5391065;26;20063;-82
2022/06/18 04:13:24;;;;;;;2.85;1.80;;;;;;;29.58;30.55;98781.66;5390964;26;20090;-81
2022/06/18 04:15:53;;;;;;;2.90;1.77;;;;;;;30.19;29.45;98776.66;5391337;26;20056;-82
2022/06/18 04:18:20;;;;;;;3.42;1.60;;;;;;;30.75;28.86;98788.91;5390912;26;20100;-82
2022/06/18 04:20:48;;;;;;;4.70;1.85;;;;;;;31.13;28.34;98793.47;5371361;26;20094;-82
2022/06/18 04:23:15;;;;;;;5.05;1.67;;;;;;;31.19;28.63;98785.59;5391427;26;20115;-82
2022/06/18 04:25:43;;;;;;;4.18;1.77;;;;;;;31.50;28.26;98788.19;5391030;26;20115;-81
2022/06/18 04:28:12;;;;;;;4.82;1.85;;;;;;;31.90;27.23;98787.00;5391122;26;20114;-81
2022/06/18 04:30:39;;;;;;;3.75;1.80;;;;;;;31.80;27.12;98797.09;5371436;26;20119;-81
2022/06/18 04:33:06;;;;;;;2.87;1.77;;;;;;;31.83;27.38;98798.56;5390702;26;20070;-81
2022/06/18 04:35:33;;;;;;;5.32;2.00;;;;;;;31.95;27.34;98800.59;5371277;26;20047;-81
2022/06/18 04:38:01;;;;;;;5.57;2.00;;;;;;;32.46;26.70;98803.34;5390778;26;20043;-81
2022/06/18 04:40:33;;;;;;;4.32;2.00;;;;;;;32.59;26.38;98802.69;5391240;26;20131;-81
2022/06/18 04:43:20;;;;;;;7.68;2.50;;;;;;;32.98;25.90;98809.50;5392354;26;20056;-82
2022/06/18 04:45:47;;;;;;;4.32;2.05;;;;;;;33.38;25.61;98813.38;5379277;26;20064;-81
2022/06/18 04:48:14;;;;;;;4.15;1.80;;;;;;;34.10;25.01;98815.78;5398822;26;20027;-82
2022/06/18 04:50:42;;;;;;;4.10;1.80;;;;;;;34.75;24.33;98822.47;5385084;26;235359;-81
2022/06/18 04:53:10;;;;;;;3.42;1.73;;;;;;;35.44;23.59;98816.06;5390755;26;20383;-82
2022/06/18 04:55:37;;;;;;;5.80;2.20;;;;;;;35.91;23.13;98816.88;5371206;26;20130;-82
2022/06/18 04:58:04;;;;;;;3.28;2.08;;;;;;;36.43;22.22;98807.84;5391039;26;20066;-82
2022/06/18 05:00:32;;;;;;;4.28;2.00;;;;;;;36.40;22.21;98815.53;5390825;26;20070;-82
2022/06/18 05:02:59;;;;;;;4.40;2.10;;;;;;;36.80;21.43;98816.16;5391149;26;20071;-81
2022/06/18 05:05:27;;;;;;;3.28;1.92;;;;;;;37.31;20.74;98815.25;5371009;26;20060;-83
2022/06/18 05:07:54;;;;;;;5.12;2.15;;;;;;;37.35;20.45;98811.09;5390695;26;20188;-82
2022/06/18 05:10:21;;;;;;;8.40;2.50;;;;;;;37.67;20.17;98817.22;5391159;26;20075;-82
2022/06/18 05:12:48;;;;;;;4.47;2.20;;;;;;;37.75;20.21;98814.28;5370578;26;20123;-82
2022/06/18 05:15:16;;;;;;;5.10;2.30;;;;;;;38.45;19.11;98820.16;5390831;26;20079;-82
2022/06/18 05:17:44;;;;;;;4.47;2.00;;;;;;;38.96;18.92;98821.56;5371022;26;20102;-82
2022/06/18 05:20:17;;;;;;;8.25;2.30;;;;;;;39.32;18.62;98823.31;5390620;26;20082;-82
2022/06/18 05:22:44;;;;;;;8.02;2.55;;;;;;;39.56;18.01;98820.66;5391080;26;20572;-82
2022/06/18 05:25:11;;;;;;;6.28;2.60;;;;;;;39.27;18.78;98828.59;5391155;26;20123;-82
2022/06/18 05:27:39;;;;;;;6.12;2.95;;;;;;;38.88;19.29;98834.56;5390566;26;20446;-82
2022/06/18 05:30:09;;;;;;;5.65;2.60;;;;;;;39.14;19.20;98834.22;5390916;26;20568;-81
2022/06/18 05:32:36;;;;;;;4.50;2.42;;;;;;;38.75;19.74;98832.88;5390849;26;20085;-82
2022/06/18 05:35:04;;;;;;;5.40;2.33;;;;;;;38.85;19.94;98829.63;5370498;26;20127;-82
2022/06/18 05:37:32;;;;;;;5.32;2.40;;;;;;;39.55;19.69;98838.75;5390791;26;20052;-82
2022/06/18 05:39:59;;;;;;;4.47;2.37;;;;;;;39.37;19.74;98832.63;5370987;26;20079;-82
2022/06/18 05:42:26;;;;;;;4.82;2.55;;;;;;;39.29;19.94;98833.78;5390406;26;20122;-81
2022/06/18 05:44:54;;;;;;;5.45;2.30;;;;;;;39.15;19.57;98832.34;5390934;26;20048;-81
2022/06/18 05:47:27;;;;;;;7.18;2.50;;;;;;;39.77;19.00;98833.63;5390864;26;20054;-81
2022/06/18 05:49:56;;;;;;;4.90;2.25;;;;;;;40.07;18.64;98838.91;5390483;26;20546;-81
2022/06/18 05:52:24;;;;;;;4.68;2.10;;;;;;;40.14;18.15;98834.19;5390674;26;20067;-81
2022/06/18 05:54:51;;;;;;;4.05;2.28;;;;;;;40.27;16.89;98838.50;5390771;26;20095;-82
2022/06/18 05:57:19;;;;;;;4.20;2.20;;;;;;;40.43;16.60;98832.41;5390377;26;20047;-81
2022/06/18 05:59:46;;;;;;;3.70;2.10;;;;;;;39.11;17.61;98839.22;5390675;26;20117;-81
2022/06/18 06:02:16;;;;;;;5.80;2.60;;;;;;;39.32;17.34;98839.50;5390439;26;20426;-81
2022/06/18 06:04:43;;;;;;;3.42;2.08;;;;;;;39.87;17.03;98841.09;5390751;26;20056;-81
2022/06/18 06:07:21;;;;;;;3.83;2.22;;;;;;;39.80;17.29;98843.13;5390701;26;20061;-82
2022/06/18 06:12:34;;;;;;;;;;;;;;;39.43;17.87;98837.88;5373295;26;20134;-82
2022/06/18 06:15:01;;;;;;;;;;;;;;;38.27;18.54;98838.19;5415218;26;19958;-82
2022/06/18 06:17:28;;;;;;;4.45;2.00;;;;;;;37.20;19.84;98834.75;5393892;26;19951;-81
2022/06/18 06:20:15;;;;;;;4.43;2.20;;;;;;;35.98;20.62;98833.78;5394341;26;20079;-81
2022/06/18 06:22:42;;;;;;;2.80;1.70;;;;;;;36.37;20.48;98830.22;5390178;26;20078;-82
2022/06/18 06:25:09;;;;;;;6.50;2.00;;;;;;;35.42;20.38;98839.59;5391418;26;20106;-81
2022/06/18 06:27:36;;;;;;;4.97;2.00;;;;;;;35.93;20.56;98829.03;5391608;26;20044;-81
2022/06/18 06:30:03;;;;;;;3.75;1.80;;;;;;;35.22;22.00;98834.19;5391720;26;20127;-81
2022/06/18 06:32:36;;;;;;;3.33;1.90;;;;;;;35.28;21.86;98841.38;5391410;26;20394;-81
2022/06/18 06:35:04;;;;;;;4.93;1.95;;;;;;;35.52;21.12;98834.66;5391845;26;20048;-81
2022/06/18 06:37:31;;;;;;;3.28;1.90;;;;;;;35.17;20.88;98836.63;5391334;26;20655;-81
2022/06/18 06:39:58;;;;;;;4.25;1.87;;;;;;;34.44;21.77;98844.41;5371732;26;20131;-81
2022/06/18 06:42:25;;;;;;;3.70;1.90;;;;;;;33.87;22.28;98842.84;5391214;26;20070;-82
2022/06/18 06:44:54;;;;;;;4.45;2.10;;;;;;;34.59;21.65;98838.09;5391182;26;20047;-81
2022/06/18 06:47:22;;;;;;;4.70;1.92;;;;;;;34.19;22.28;98838.72;5391717;26;20111;-81
2022/06/18 06:49:48;;;;;;;3.83;1.67;;;;;;;33.62;22.60;98839.75;5391636;26;20073;-81
2022/06/18 06:52:15;;;;;;;4.10;1.73;;;;;;;34.18;22.34;98844.25;5391374;26;20087;-81
2022/06/18 06:54:42;;;;;;;9.23;1.75;;;;;;;33.78;22.65;98841.28;5391739;26;20452;-81
2022/06/18 06:57:21;;;;;;;4.87;2.00;;;;;;;32.93;23.34;98836.78;5391794;26;20051;-81
2022/06/18 06:59:49;;;;;;;3.45;1.77;;;;;;;33.02;23.34;98832.16;5391317;26;20520;-81
2022/06/18 07:02:19;;;;;;;3.83;1.62;;;;;;;33.31;22.76;98836.56;5391756;26;20199;-81
2022/06/18 07:04:46;;;;;;;2.80;1.87;;;;;;;32.71;23.39;98840.41;5391670;26;20424;-81
2022/06/18 07:07:14;;;;;;;4.40;1.80;;;;;;;33.31;22.78;98841.91;5391329;26;20044;-81
2022/06/18 07:09:42;;;;;;;4.60;2.10;;;;;;;32.87;22.87;98834.91;5391288;26;20120;-82
2022/06/18 07:12:09;;;;;;;6.87;2.00;;;;;;;32.49;24.18;98829.69;5371563;26;20083;-81
2022/06/18 07:14:37;;;;;;;3.70;1.70;;;;;;;33.33;22.59;98837.19;5390941;26;20089;-81
2022/06/18 07:17:07;;;;;;;4.82;1.70;;;;;;;33.61;21.86;98832.75;5391646;26;20047;-81
2022/06/18 07:19:33;;;;;;;3.87;1.80;;;;;;;33.48;21.75;98829.94;5371037;26;20127;-81
2022/06/18 07:22:00;;;;;;;5.72;2.20;;;;;;;31.38;24.56;98825.13;5391828;26;20067;-81
2022/06/18 07:24:28;;;;;;;3.78;1.90;;;;;;;33.33;22.22;98826.50;5374719;26;20129;-82
2022/06/18 07:26:54;;;;;;;3.58;1.70;;;;;;;33.75;21.70;98838.19;5396533;26;20619;-82
2022/06/18 07:29:21;;;;;;;4.37;2.03;;;;;;;33.17;23.32;98827.56;5391443;26;20123;-81
2022/06/18 07:31:49;;;;;;;3.53;1.90;;;;;;;33.26;23.19;98829.09;5391563;26;20065;-81
2022/06/18 07:34:16;;;;;;;4.47;2.05;;;;;;;33.00;22.83;98819.00;5404491;26;20122;-81
2022/06/18 07:36:43;;;;;;;6.03;2.03;;;;;;;33.57;22.60;98825.28;5394120;26;20047;-81
2022/06/18 07:39:10;;;;;;;4.30;1.90;;;;;;;33.58;22.33;98822.41;5414068;26;20079;-81
2022/06/18 07:41:42;;;;;;;3.25;1.90;;;;;;;32.63;22.47;98817.31;5414029;26;20073;-81
2022/06/18 07:44:09;;;;;;;3.20;1.70;;;;;;;33.43;22.07;98820.84;5397165;26;20500;-81
2022/06/18 07:46:36;;;;;;;3.62;1.65;;;;;;;33.92;21.75;98812.78;5371429;26;20047;-81
2022/06/18 07:49:05;;;;;;;5.10;2.12;;;;;;;34.41;21.71;98819.87;5390761;26;20080;-81
2022/06/18 07:51:32;;;;;;;2.95;1.70;;;;;;;33.50;21.59;98827.09;5391677;26;20056;-81
2022/06/18 07:53:59;;;;;;;2.60;1.70;;;;;;;33.37;21.81;98830.47;5391428;26;20061;-81
2022/06/18 07:56:26;;;;;;;3.85;1.80;;;;;;;33.78;21.93;98821.72;5391078;26;20051;-82
2022/06/18 07:58:53;;;;;;;4.12;1.80;;;;;;;33.92;21.55;98827.03;5371160;26;20077;-81
2022/06/18 08:01:20;;;;;;;4.00;1.90;;;;;;;33.25;22.95;98826.63;5391538;26;20083;-81
2022/06/18 08:03:47;;;;;;;5.15;1.95;;;;;;;33.56;22.62;98826.31;5398160;26;20492;-81
2022/06/18 08:06:14;;;;;;;3.42;1.65;;;;;;;33.14;22.37;98816.44;5414289;26;20082;-81
2022/06/18 08:08:41;;;;;;;4.87;2.00;;;;;;;33.74;23.00;98820.47;5413682;26;20063;-81
2022/06/18 08:11:12;;;;;;;3.37;1.60;;;;;;;34.37;20.99;98815.94;5414279;26;20060;-81
2022/06/18 08:13:39;;;;;;;3.35;1.70;;;;;;;31.96;22.07;98814.75;5382822;26;20082;-81
2022/06/18 08:16:07;;;;;;;4.00;2.03;;;;;;;32.30;21.46;98810.72;5391071;26;20099;-80
2022/06/18 08:18:34;;;;;;;4.15;2.10;;;;;;;33.25;21.23;98808.72;5391078;26;20164;-80
2022/06/18 08:21:05;;;;;;;3.70;1.70;;;;;;;32.95;22.12;98807.19;5371359;26;20056;-80
2022/06/18 08:23:34;;;;;;;2.92;1.70;;;;;;;33.98;20.66;98809.34;5349148;26;20066;-81
2022/06/18 08:26:01;;;;;;;3.15;1.67;;;;;;;34.81;20.32;98804.78;5322875;27;20048;-80
2022/06/18 08:28:29;;;;;;;3.00;1.55;;;;;;;34.46;21.46;98812.09;5323779;27;20053;-80
2022/06/18 08:30:56;;;;;;;2.97;1.70;;;;;;;33.24;21.42;98807.06;5323714;26;20113;-80
2022/06/18 08:33:23;;;;;;;3.80;1.77;;;;;;;32.09;22.51;98804.25;5326735;26;20074;-81
2022/06/18 08:35:51;;;;;;;2.25;1.42;;;;;;;33.40;20.91;98816.72;5346259;26;20094;-81
2022/06/18 08:38:19;;;;;;;3.12;1.77;;;;;;;34.02;20.13;98807.09;5345775;26;20080;-81
2022/06/18 08:40:55;;;;;;;5.45;2.00;;;;;;;33.95;20.18;98801.72;5346409;26;20065;-80
2022/06/18 08:43:38;;;;;;;5.35;1.83;;;;;;;34.79;19.84;98809.53;5351556;26;20398;-80
2022/06/18 08:46:25;;;;;;;2.90;1.80;;;;;;;34.66;20.74;98802.25;5368876;26;20047;-80
2022/06/18 08:49:19;;;;;;;3.75;1.87;;;;;;;34.68;19.94;98802.06;5368023;26;20401;-80
2022/06/18 08:52:02;;;;;;;2.67;1.62;;;;;;;35.67;22.23;98806.75;5348540;26;20074;-80
2022/06/18 08:54:54;;;;;;;5.57;2.05;;;;;;;35.56;20.04;98802.84;5348707;26;20052;-80
2022/06/18 08:57:39;;;;;;;4.95;1.80;;;;;;;33.89;22.31;98792.59;5368745;26;20119;-81
2022/06/18 09:00:28;;;;;;;3.20;1.90;;;;;;;33.91;21.90;98795.91;5348711;26;20074;-80
2022/06/18 09:05:44;;;;;;;3.80;1.70;;;;;;;35.13;19.11;98789.81;5401886;26;20114;-80
2022/06/18 09:08:23;;;;;;;3.85;1.95;;;;;;;34.58;20.48;98788.22;5413885;26;20437;-80
2022/06/18 09:11:26;;;;;;;4.43;1.70;;;;;;;33.50;21.86;98781.63;5413997;26;20058;-80
2022/06/18 09:14:15;;;;;;;3.08;1.70;;;;;;;34.21;21.87;98779.59;5406419;26;20064;-80
2022/06/18 09:17:08;;;;;;;3.33;1.80;;;;;;;35.29;19.83;98783.19;5413956;26;20103;-80
2022/06/18 09:19:36;;;;;;;4.37;1.80;;;;;;;35.40;19.26;98784.47;5397904;26;20050;-81
2022/06/18 09:22:10;;;;;;;3.30;1.58;;;;;;;35.29;19.48;98772.47;5413920;26;20055;-80
2022/06/18 09:24:48;;;;;;;1.87;1.42;;;;;;;32.98;22.40;98772.09;5377772;26;20074;-81
2022/06/18 09:27:23;;;;;;;4.85;1.85;;;;;;;30.64;24.43;98762.69;5390599;26;20134;-81
2022/06/18 09:29:52;;;;;;;2.83;1.70;;;;;;;31.77;24.42;98767.28;5391051;26;20074;-80
2022/06/18 09:32:22;;;;;;;4.70;1.45;;;;;;;33.03;21.86;98767.81;5370942;26;20458;-80
2022/06/18 09:35:04;;;;;;;4.03;1.70;;;;;;;32.98;22.39;98764.91;5397135;26;20068;-81
2022/06/18 09:37:40;;;;;;;2.53;1.50;;;;;;;33.28;20.26;98762.88;5413923;26;20778;-80
2022/06/18 09:40:13;;;;;;;4.00;1.70;;;;;;;33.23;20.72;98759.97;5393094;26;20113;-80
2022/06/18 09:42:45;;;;;;;3.40;1.67;;;;;;;34.66;19.66;98762.03;5393564;26;20167;-80
2022/06/18 09:45:21;;;;;;;4.57;1.70;;;;;;;35.00;19.78;98758.44;5331718;26;20123;-80
2022/06/18 09:47:49;;;;;;;3.25;1.70;;;;;;;34.99;20.99;98759.47;5322650;27;20119;-80
2022/06/18 09:50:19;;;;;;;3.17;1.75;;;;;;;36.02;20.18;98757.13;5324704;26;20065;-80
2022/06/18 09:52:48;;;;;;;2.30;1.70;;;;;;;35.02;19.77;98752.88;5324620;27;20095;-81
2022/06/18 09:55:19;;;;;;;2.15;1.48;;;;;;;35.42;19.49;98745.69;5322894;26;20072;-80
2022/06/18 09:57:51;;;;;;;2.67;1.70;;;;;;;32.56;22.25;98740.78;5323328;27;20048;-80
2022/06/18 10:00:22;;;;;;;2.65;1.55;;;;;;;34.58;20.39;98735.47;5323516;27;20380;-80
2022/06/18 10:02:56;;;;;;;4.90;1.90;;;;;;;32.94;21.96;98736.06;5323351;27;20073;-80
2022/06/18 10:08:15;;;;;;;2.92;1.70;;;;;;;34.20;21.20;98738.59;5324055;26;20112;-80
2022/06/18 10:10:47;;;;;;;4.72;1.87;;;;;;;34.14;21.84;98741.25;5324622;26;20060;-81
2022/06/18 10:13:18;;;;;;;4.50;1.77;;;;;;;34.17;20.96;98735.50;5323246;27;20065;-80
2022/06/18 10:15:46;;;;;;;3.80;1.70;;;;;;;34.57;20.78;98733.81;5323005;27;20060;-80
2022/06/18 10:18:16;;;;;;;2.85;1.60;;;;;;;35.60;21.10;98732.44;5324471;26;20104;-80
2022/06/18 10:20:55;;;;;;;2.10;1.45;;;;;;;35.85;18.88;98726.41;5324525;27;20092;-80
2022/06/18 10:24:00;;;;;;;3.37;1.83;;;;;;;36.63;19.78;98728.97;5324115;26;20113;-80
2022/06/18 10:26:44;;;;;;;3.17;1.62;;;;;;;35.64;19.78;98722.94;5324672;27;20080;-80
2022/06/18 10:29:19;;;;;;;4.22;1.70;;;;;;;34.79;20.15;98711.16;5322808;27;20111;-80
2022/06/18 10:31:53;;;;;;;3.35;1.77;;;;;;;34.48;22.05;98714.41;5324688;26;20096;-80
2022/06/18 10:34:42;;;;;;;3.03;1.73;;;;;;;32.31;23.76;98694.91;5324323;26;20415;-80
2022/06/18 10:37:33;;;;;;;2.97;1.87;;;;;;;31.69;24.40;98696.16;5324169;26;20067;-80
2022/06/18 10:40:28;;;;;;;3.10;1.55;;;;;;;31.32;25.15;98695.19;5324600;27;20433;-80
2022/06/18 10:43:20;;;;;;;4.30;1.48;;;;;;;33.12;24.49;98695.50;5324147;27;20120;-80
2022/06/18 10:46:01;;;;;;;3.45;1.50;;;;;;;33.08;22.72;98695.88;5345355;26;20109;-80
2022/06/18 10:48:29;;;;;;;3.58;1.70;;;;;;;31.79;23.04;98691.34;5346685;26;20112;-80
2022/06/18 10:50:59;;;;;;;2.33;1.58;;;;;;;31.05;24.25;98685.09;5326570;26;20131;-80
2022/06/18 10:56:13;;;;;;;1.73;1.30;;;;;;;31.22;21.54;98683.97;5322869;26;20463;-80
2022/06/18 10:59:06;;;;;;;3.08;1.20;;;;;;;31.32;20.65;98679.19;5324137;26;20407;-80
2022/06/18 11:01:46;;;;;;;2.12;1.30;;;;;;;32.84;19.07;98695.44;5321562;26;20112;-80
2022/06/18 11:04:22;;;;;;;2.80;1.42;;;;;;;31.56;22.33;98682.59;5323702;26;20106;-80
2022/06/18 11:06:57;;;;;;;1.98;1.50;;;;;;;32.84;20.96;98684.75;5323214;27;20076;-80
2022/06/18 11:09:38;;;;;;;2.85;1.40;;;;;;;32.18;22.30;98680.34;5305420;27;20074;-80
2022/06/18 11:12:23;;;;;;;2.60;1.52;;;;;;;31.86;21.55;98678.94;5324086;26;20132;-80
2022/06/18 11:14:50;;;;;;;2.20;1.50;;;;;;;31.31;23.36;98674.06;5324310;26;20099;-80
2022/06/18 11:17:28;;;;;;;4.75;1.90;;;;;;;32.07;22.42;98669.34;5324453;26;20123;-80
2022/06/18 11:20:12;;;;;;;2.85;1.67;;;;;;;31.60;25.76;98670.56;5323907;26;20442;-80
2022/06/18 11:22:39;;;;;;;6.00;2.00;;;;;;;31.93;25.20;98668.38;5323149;27;20421;-80
2022/06/18 11:25:29;;;;;;;2.78;1.60;;;;;;;31.46;24.65;98671.38;5323957;26;20103;-80
2022/06/18 11:27:59;;;;;;;4.47;1.95;;;;;;;31.47;23.38;98663.19;5324354;26;20076;-80
2022/06/18 11:30:32;;;;;;;2.85;1.35;;;;;;;31.32;25.94;98657.03;5322923;27;20128;-80
2022/06/18 11:33:01;;;;;;;1.58;1.30;;;;;;;30.68;21.85;98659.28;5323945;26;20361;-80
2022/06/18 11:35:31;;;;;;;4.03;1.42;;;;;;;31.12;22.82;98664.69;5319907;26;20433;-80
2022/06/18 11:38:17;;;;;;;4.00;1.35;;;;;;;31.94;21.27;98652.16;5324299;27;20110;-80
2022/06/18 11:40:51;;;;;;;2.33;1.23;;;;;;;33.38;21.06;98659.09;5322662;27;20163;-80
2022/06/18 11:43:34;;;;;;;3.80;1.30;;;;;;;31.87;21.54;98653.91;5322886;27;20416;-80
2022/06/18 11:46:06;;;;;;;1.83;1.12;;;;;;;31.43;21.35;98645.09;5301927;27;20045;-80
2022/06/18 11:49:10;;;;;;;2.70;1.40;;;;;;;30.40;20.38;98641.12;5302312;27;20080;-80
2022/06/18 11:52:03;;;;;;;3.53;1.60;;;;;;;31.64;20.53;98643.34;5302396;27;20065;-80
2022/06/18 11:55:05;;;;;;;2.62;1.45;;;;;;;31.60;20.56;98642.06;5280027;27;20101;-80
2022/06/18 11:57:38;;;;;;;3.05;1.67;;;;;;;32.33;19.34;98640.31;5287711;27;20097;-80
2022/06/18 12:00:06;;;;;;;2.78;1.37;;;;;;;33.08;19.83;98644.28;5301836;27;20061;-80
2022/06/18 12:02:58;;;;;;;3.30;1.20;;;;;;;32.75;18.67;98643.97;5302169;27;20072;-80
2022/06/18 12:05:47;;;;;;;0.90;0.90;;;;;;;33.11;19.28;98641.19;5302175;27;20109;-80
2022/06/18 12:08:18;;;;;;;1.25;1.15;;;;;;;32.72;18.83;98633.66;5300331;27;20124;-80
2022/06/18 12:10:55;;;;;;;2.33;1.33;;;;;;;32.71;20.52;98626.66;5301815;27;20057;-80
2022/06/18 12:13:34;;;;;;;2.72;1.40;;;;;;;32.80;19.52;98628.19;5302266;27;20132;-80